Weather at Helicopter Transport Inc / Office Heliport [CLOSED]

Public forecast

Using degrees Fahrenheit for public forecast. Weather courtesy of forecast.io.

Closest aviation weather report (METAR) to Helicopter Transport Inc / Office Heliport

Closest report is Phoenix Sky Harbor International Airport, 1.6 nm (2.9 km) SW.

2024/07/17 17:51 (retrieved 1 hour ago)

KPHX 171751Z 28005KT 10SM SCT170 SCT250 38/15 A2988 RMK AO2 SLP095 T03780150 10378 20322 58009

Closest aviation forecast (TAF) to Helicopter Transport Inc / Office Heliport

Closest forecast is Phoenix Sky Harbor International Airport, 1.6 nm (2.9 km) SW.

2024/07/17 18:45 (retrieved 10 minutes ago)

TAF KPHX 171742Z 1718/1824 28007KT P6SM FEW140 FM172200 28012G21KT P6SM FEW140 FM180300 29010KT P6SM FEW130 FEW250 TEMPO 1803/1805 35010KT FM181100 12005KT P6SM SCT150 SCT250 FM181600 26006KT P6SM FEW150 SCT250